Time;durP1;ratioP1;P1;durP2;ratioP2;P2;SDS_P1;SDS_P2;PMS_P1;PMS_P2;Temp;Humidity;BMP_temperature;BMP_pressure;BME280_temperature;BME280_humidity;BME280_pressure;Samples;Min_cycle;Max_cycle;Signal;HPM_P1;HPM_P2
2023/09/01 00:01:32;;;;;;;5.05;1.27;;;;;;;9.52;59.65;101146.56;4994928;28;20290;-75
2023/09/01 00:04:19;;;;;;;6.93;1.45;;;;;;;9.49;59.56;101147.50;4973720;28;20052;-73
2023/09/01 00:06:45;;;;;;;5.57;1.45;;;;;;;9.70;58.97;101145.13;4982715;28;20155;-73
2023/09/01 00:09:10;;;;;;;3.35;1.15;;;;;;;9.68;58.62;101141.69;4984111;28;20034;-72
2023/09/01 00:11:38;;;;;;;2.08;1.13;;;;;;;9.54;59.49;101145.63;4980679;28;20617;-71
2023/09/01 00:14:05;;;;;;;2.55;1.27;;;;;;;9.60;59.38;101144.56;4982738;28;20214;-73
2023/09/01 00:16:30;;;;;;;4.45;1.10;;;;;;;9.59;59.22;101140.25;4980833;28;20060;-73
2023/09/01 00:18:55;;;;;;;5.53;1.42;;;;;;;9.72;58.83;101138.09;4982607;28;20092;-71
2023/09/01 00:21:21;;;;;;;3.80;1.25;;;;;;;9.73;58.70;101135.44;4982165;28;20042;-71
2023/09/01 00:23:47;;;;;;;7.43;1.42;;;;;;;9.45;59.59;101143.28;4982546;28;20038;-71
2023/09/01 00:26:12;;;;;;;4.72;0.90;;;;;;;9.68;58.90;101136.47;4987805;28;20517;-73
2023/09/01 00:28:39;;;;;;;3.60;1.05;;;;;;;9.63;59.06;101147.06;4981783;28;20049;-73
2023/09/01 00:31:05;;;;;;;3.35;1.20;;;;;;;9.57;59.21;101135.09;4983332;28;20143;-73
2023/09/01 00:33:30;;;;;;;2.28;0.73;;;;;;;9.63;59.15;101133.16;4993046;28;20285;-72
2023/09/01 00:35:57;;;;;;;1.30;0.73;;;;;;;9.70;58.79;101132.06;4964046;28;20432;-72
2023/09/01 00:38:29;;;;;;;5.30;1.20;;;;;;;9.74;58.55;101131.91;4980358;28;20049;-72
2023/09/01 00:40:54;;;;;;;1.77;0.93;;;;;;;9.73;58.76;101135.44;4998646;28;20045;-72
2023/09/01 00:43:20;;;;;;;5.13;0.90;;;;;;;9.80;58.35;101136.97;4977841;28;20034;-72
2023/09/01 00:45:46;;;;;;;2.33;0.90;;;;;;;9.73;58.57;101134.59;4979797;28;20022;-70
2023/09/01 00:48:15;;;;;;;2.60;1.30;;;;;;;9.73;58.89;101132.84;4990240;28;20072;-71
2023/09/01 00:50:42;;;;;;;2.97;0.88;;;;;;;9.62;58.95;101129.72;4981143;28;20026;-71
2023/09/01 00:53:08;;;;;;;1.52;1.15;;;;;;;9.71;58.34;101131.19;4986883;28;20034;-71
2023/09/01 00:55:35;;;;;;;3.53;1.20;;;;;;;9.70;58.13;101129.47;4984279;28;21061;-71
2023/09/01 00:58:02;;;;;;;7.32;1.65;;;;;;;9.56;58.52;101132.50;4981970;28;20045;-73
2023/09/01 01:00:28;;;;;;;2.33;1.05;;;;;;;9.67;58.06;101127.81;4961247;28;20757;-72
2023/09/01 01:02:55;;;;;;;4.03;1.10;;;;;;;9.60;58.57;101134.97;4981176;28;20076;-72
2023/09/01 01:05:29;;;;;;;6.82;1.05;;;;;;;9.62;57.93;101132.31;4978302;28;20505;-72
2023/09/01 01:08:06;;;;;;;3.17;1.00;;;;;;;9.53;58.35;101132.63;4961059;28;20042;-71
2023/09/01 01:10:42;;;;;;;1.42;0.57;;;;;;;9.56;58.29;101135.13;4973963;28;20037;-71
2023/09/01 01:13:13;;;;;;;2.78;0.93;;;;;;;9.53;58.71;101133.47;4966848;28;20046;-71
2023/09/01 01:15:40;;;;;;;3.05;0.57;;;;;;;9.53;58.27;101133.47;4977827;28;21014;-71
2023/09/01 01:18:10;;;;;;;5.53;0.75;;;;;;;9.50;58.08;101127.47;4983019;28;20038;-70
2023/09/01 01:20:42;;;;;;;4.45;0.75;;;;;;;9.29;58.98;101137.69;4975410;28;20030;-74
2023/09/01 01:23:16;;;;;;;3.42;0.70;;;;;;;9.39;58.22;101139.13;4978209;28;20629;-74
2023/09/01 01:25:52;;;;;;;3.22;1.10;;;;;;;9.39;58.18;101130.44;4977294;28;20053;-73
2023/09/01 01:28:19;;;;;;;1.73;0.88;;;;;;;9.33;58.25;101128.88;4949238;28;20048;-73
2023/09/01 01:30:47;;;;;;;3.22;0.63;;;;;;;9.31;58.44;101138.50;4980431;28;20042;-73
2023/09/01 01:33:27;;;;;;;4.13;1.00;;;;;;;9.29;58.36;101142.91;4965154;28;20054;-71
2023/09/01 01:36:11;;;;;;;2.58;0.73;;;;;;;9.30;58.17;101141.16;4994996;28;21494;-72
2023/09/01 01:38:42;;;;;;;2.10;0.70;;;;;;;9.31;58.12;101138.50;4976188;28;20129;-72
2023/09/01 01:41:18;;;;;;;2.63;0.50;;;;;;;9.24;58.12;101141.34;4997598;28;20034;-72
2023/09/01 01:43:45;;;;;;;2.42;1.13;;;;;;;9.24;58.08;101144.81;4992061;28;20041;-72
2023/09/01 01:46:10;;;;;;;3.03;0.55;;;;;;;9.18;58.02;101144.97;4987349;28;20030;-72
2023/09/01 01:48:37;;;;;;;4.45;0.57;;;;;;;9.17;58.15;101143.28;4966115;28;20088;-72
2023/09/01 01:51:05;;;;;;;1.70;0.50;;;;;;;9.19;58.19;101150.16;4981125;28;20391;-72
2023/09/01 01:53:33;;;;;;;2.47;0.90;;;;;;;9.22;57.95;101154.44;4968003;28;20493;-72
2023/09/01 01:55:59;;;;;;;2.03;0.80;;;;;;;9.22;57.96;101151.81;4995905;28;20431;-74
2023/09/01 01:58:24;;;;;;;3.92;0.60;;;;;;;9.13;57.73;101150.34;4985760;28;20038;-72
2023/09/01 02:00:50;;;;;;;2.40;0.55;;;;;;;9.09;57.92;101147.88;4986110;28;20885;-72
2023/09/01 02:03:15;;;;;;;3.03;0.60;;;;;;;9.04;57.95;101154.97;4982826;28;20424;-72
2023/09/01 02:05:41;;;;;;;2.53;0.85;;;;;;;9.03;58.01;101153.25;4994455;28;20388;-72
2023/09/01 02:08:06;;;;;;;1.85;0.50;;;;;;;9.09;58.02;101158.28;4986477;28;20042;-71
2023/09/01 02:10:33;;;;;;;4.43;1.15;;;;;;;9.08;57.69;101157.44;4979911;28;20655;-72
2023/09/01 02:12:59;;;;;;;2.45;0.73;;;;;;;9.06;57.79;101161.00;4985064;28;20046;-73
2023/09/01 02:15:25;;;;;;;3.58;0.80;;;;;;;9.03;58.03;101161.94;4989017;28;20495;-73
2023/09/01 02:17:51;;;;;;;2.63;1.00;;;;;;;9.00;57.91;101158.56;4997447;28;20030;-73
2023/09/01 02:20:18;;;;;;;2.33;0.70;;;;;;;8.90;57.99;101164.03;4982116;28;20122;-69
2023/09/01 02:22:45;;;;;;;2.95;1.13;;;;;;;8.90;57.86;101158.84;4965854;28;20432;-71
2023/09/01 02:25:12;;;;;;;3.78;0.65;;;;;;;8.82;57.85;101163.41;4973104;28;20120;-71
2023/09/01 02:27:40;;;;;;;1.80;0.80;;;;;;;8.77;57.74;101170.50;4980693;28;20041;-74
2023/09/01 02:30:08;;;;;;;3.20;1.23;;;;;;;8.70;58.06;101174.16;4984393;28;20590;-71
2023/09/01 02:32:34;;;;;;;1.90;1.17;;;;;;;8.67;58.03;101176.81;4986919;28;20037;-72
2023/09/01 02:35:00;;;;;;;3.60;0.85;;;;;;;8.70;57.84;101171.53;4973490;28;20040;-72
2023/09/01 02:37:28;;;;;;;3.70;0.98;;;;;;;8.69;57.94;101175.03;4998647;28;20045;-71
2023/09/01 02:39:54;;;;;;;2.92;0.85;;;;;;;8.63;57.74;101181.28;4990576;28;20038;-71
2023/09/01 02:42:19;;;;;;;3.45;0.73;;;;;;;8.59;57.76;101179.63;4964746;28;20126;-72
2023/09/01 02:44:46;;;;;;;3.95;0.90;;;;;;;8.50;58.02;101175.53;4986296;28;20070;-73
2023/09/01 02:47:11;;;;;;;1.90;0.77;;;;;;;8.49;58.03;101179.00;4973738;28;20034;-71
2023/09/01 02:49:37;;;;;;;1.73;0.77;;;;;;;8.53;57.75;101174.59;4979557;28;20102;-71
2023/09/01 02:52:02;;;;;;;1.60;0.50;;;;;;;8.48;57.90;101177.31;4984568;28;20038;-70
2023/09/01 02:54:28;;;;;;;2.40;1.17;;;;;;;8.53;58.16;101175.44;4987926;28;20473;-70
2023/09/01 02:56:53;;;;;;;1.98;1.13;;;;;;;8.51;58.20;101169.41;4996085;28;20041;-70
2023/09/01 02:59:19;;;;;;;1.50;0.73;;;;;;;8.52;58.15;101168.53;4981278;28;20479;-71
2023/09/01 03:01:44;;;;;;;2.15;0.80;;;;;;;8.59;58.28;101165.75;4981466;28;20034;-71
2023/09/01 03:04:10;;;;;;;1.77;0.68;;;;;;;8.52;58.25;101165.91;4997893;28;20042;-70
2023/09/01 03:06:35;;;;;;;4.68;0.98;;;;;;;8.44;58.14;101170.47;4982666;28;20050;-73
2023/09/01 03:09:02;;;;;;;3.08;1.00;;;;;;;8.46;58.39;101170.44;4984753;28;20038;-72
2023/09/01 03:11:28;;;;;;;1.48;0.82;;;;;;;8.39;58.47;101161.94;4988502;28;20026;-73
2023/09/01 03:13:53;;;;;;;2.72;0.70;;;;;;;8.36;58.60;101165.47;4971115;28;20029;-73
2023/09/01 03:16:19;;;;;;;3.55;0.95;;;;;;;8.36;58.29;101168.06;4981349;28;20085;-73
2023/09/01 03:18:44;;;;;;;3.45;1.05;;;;;;;8.29;58.69;101170.88;4965207;28;20052;-73
2023/09/01 03:21:14;;;;;;;2.80;1.95;;;;;;;8.32;58.54;101166.44;4989252;28;20145;-73
2023/09/01 03:23:41;;;;;;;2.35;0.70;;;;;;;8.32;58.51;101168.19;4970851;28;20039;-73
2023/09/01 03:26:06;;;;;;;1.65;0.70;;;;;;;8.33;58.16;101172.50;4983915;28;20607;-73
2023/09/01 03:28:33;;;;;;;3.00;0.77;;;;;;;8.32;58.29;101161.22;4981002;28;20110;-74
2023/09/01 03:30:58;;;;;;;3.28;0.80;;;;;;;8.37;58.31;101166.31;4983067;28;20626;-74
2023/09/01 03:33:25;;;;;;;3.13;1.52;;;;;;;8.35;58.52;101165.50;4979896;28;20053;-73
2023/09/01 03:35:51;;;;;;;1.50;0.63;;;;;;;8.34;58.26;101169.88;4997191;28;20130;-74
2023/09/01 03:38:17;;;;;;;2.97;0.93;;;;;;;8.36;58.70;101167.22;4978896;28;20471;-71
2023/09/01 03:40:42;;;;;;;3.53;1.02;;;;;;;8.37;58.64;101168.94;4964228;28;20040;-71
2023/09/01 03:43:08;;;;;;;4.85;1.08;;;;;;;8.40;58.41;101176.66;4986252;28;20045;-73
2023/09/01 03:45:34;;;;;;;2.35;1.25;;;;;;;8.31;58.81;101174.28;4979387;28;20084;-71
2023/09/01 03:48:00;;;;;;;2.58;0.88;;;;;;;8.36;58.94;101172.44;4982709;28;20041;-69
2023/09/01 03:50:25;;;;;;;4.07;1.40;;;;;;;8.35;59.46;101175.91;4993043;28;20037;-69
2023/09/01 03:52:51;;;;;;;2.63;1.27;;;;;;;8.40;58.73;101178.41;4959926;28;20132;-71
2023/09/01 03:55:16;;;;;;;1.45;0.85;;;;;;;8.41;58.77;101180.97;4979507;28;20038;-70
2023/09/01 03:57:43;;;;;;;3.70;0.98;;;;;;;8.35;58.81;101170.72;4978928;28;20450;-71
2023/09/01 04:00:10;;;;;;;1.73;0.88;;;;;;;8.39;58.45;101166.28;4996155;28;20202;-71
2023/09/01 04:02:39;;;;;;;4.85;0.80;;;;;;;8.38;58.78;101164.56;4979502;28;20044;-70
2023/09/01 04:05:05;;;;;;;1.70;0.85;;;;;;;8.32;58.59;101168.19;4988717;28;20030;-70
2023/09/01 04:07:30;;;;;;;2.60;0.80;;;;;;;8.31;59.13;101167.31;4981864;28;20198;-73
2023/09/01 04:09:58;;;;;;;2.25;0.80;;;;;;;8.38;59.15;101174.97;4986677;28;20096;-71
2023/09/01 04:12:24;;;;;;;2.88;0.90;;;;;;;8.38;59.05;101180.19;4970154;28;20640;-72
2023/09/01 04:14:49;;;;;;;3.55;1.35;;;;;;;8.35;58.91;101181.13;4982246;28;20044;-72
2023/09/01 04:17:15;;;;;;;7.07;1.25;;;;;;;8.20;59.76;101178.91;4978485;28;20033;-72
2023/09/01 04:19:41;;;;;;;4.70;1.13;;;;;;;8.39;58.86;101169.75;4981578;28;20440;-72
2023/09/01 04:22:06;;;;;;;3.33;1.20;;;;;;;8.19;59.56;101172.84;4981311;28;20030;-71
2023/09/01 04:24:32;;;;;;;1.98;1.30;;;;;;;8.25;59.54;101179.63;4967510;28;20408;-72
2023/09/01 04:26:58;;;;;;;4.07;1.27;;;;;;;8.29;58.87;101178.69;4980320;28;21634;-72
2023/09/01 04:29:23;;;;;;;2.78;0.93;;;;;;;8.29;58.85;101176.06;4967975;28;20073;-73
2023/09/01 04:31:49;;;;;;;5.50;1.02;;;;;;;8.26;58.52;101181.38;4978921;28;20742;-72
2023/09/01 04:34:17;;;;;;;6.30;1.30;;;;;;;8.30;58.66;101177.81;4965657;28;20039;-71
2023/09/01 04:36:42;;;;;;;3.58;0.95;;;;;;;8.29;58.44;101176.94;4978692;28;20099;-71
2023/09/01 04:39:09;;;;;;;3.03;0.93;;;;;;;8.26;58.66;101176.16;4972417;28;20136;-70
2023/09/01 04:41:35;;;;;;;3.65;1.60;;;;;;;8.25;59.05;101179.63;4983794;28;20045;-70
2023/09/01 04:44:01;;;;;;;6.35;1.00;;;;;;;8.30;58.96;101190.81;4978725;28;20405;-70
2023/09/01 04:46:27;;;;;;;2.70;1.23;;;;;;;8.32;58.40;101191.63;4964858;28;20591;-72
2023/09/01 04:48:52;;;;;;;3.42;1.13;;;;;;;8.37;58.76;101181.94;4961973;28;20132;-72
2023/09/01 04:51:18;;;;;;;2.33;1.58;;;;;;;8.39;58.70;101177.56;4977379;28;20133;-70
2023/09/01 04:53:44;;;;;;;5.22;1.30;;;;;;;8.43;58.79;101193.97;4963200;28;20064;-73
2023/09/01 04:56:09;;;;;;;2.55;1.55;;;;;;;8.55;58.80;101189.28;4965235;28;20036;-73
2023/09/01 04:58:35;;;;;;;2.67;1.40;;;;;;;8.50;59.25;101185.94;4994522;28;20092;-72
2023/09/01 05:01:00;;;;;;;3.00;1.40;;;;;;;8.49;59.10;101196.41;4979112;28;20096;-73
2023/09/01 05:03:26;;;;;;;2.78;1.50;;;;;;;8.64;58.93;101202.97;4985336;28;20049;-73
2023/09/01 05:05:52;;;;;;;3.53;1.33;;;;;;;8.59;58.92;101205.69;4979779;28;20080;-73
2023/09/01 05:08:19;;;;;;;5.88;1.52;;;;;;;8.74;58.82;101212.28;4984682;28;20033;-72
2023/09/01 05:10:45;;;;;;;4.47;1.38;;;;;;;8.90;58.77;101216.19;4979209;28;20138;-74
2023/09/01 05:13:11;;;;;;;3.20;1.42;;;;;;;8.88;58.55;101210.16;4981258;28;20038;-73
2023/09/01 05:15:36;;;;;;;2.55;2.20;;;;;;;8.72;58.50;101212.31;4979074;28;20030;-73
2023/09/01 05:18:03;;;;;;;4.75;1.75;;;;;;;9.05;58.29;101222.69;4964818;28;20076;-72
2023/09/01 05:20:28;;;;;;;5.28;2.00;;;;;;;9.24;57.99;101220.44;4995040;28;20030;-72
2023/09/01 05:22:54;;;;;;;4.28;1.92;;;;;;;9.41;57.82;101217.34;4961946;28;20043;-73
2023/09/01 05:25:19;;;;;;;3.15;1.17;;;;;;;9.48;57.39;101208.44;4977619;28;20045;-73
2023/09/01 05:27:45;;;;;;;2.85;1.15;;;;;;;9.23;57.37;101216.13;4979175;28;20038;-73
2023/09/01 05:30:12;;;;;;;2.45;1.58;;;;;;;9.49;57.54;101210.13;4997124;28;20408;-74
2023/09/01 05:32:38;;;;;;;3.85;1.50;;;;;;;10.37;57.52;101215.19;4986593;28;20042;-73
2023/09/01 05:35:05;;;;;;;3.00;1.10;;;;;;;12.38;54.14;101214.66;4984822;28;20092;-75
2023/09/01 05:37:31;;;;;;;3.85;1.10;;;;;;;13.88;49.26;101213.16;4979093;28;20062;-72
2023/09/01 05:39:56;;;;;;;2.83;1.40;;;;;;;14.75;44.43;101217.59;4963368;28;20445;-71
2023/09/01 05:42:22;;;;;;;3.92;1.15;;;;;;;14.79;44.42;101215.66;4967384;28;20038;-72
2023/09/01 05:44:47;;;;;;;3.40;1.10;;;;;;;14.29;44.91;101225.19;4977062;28;20666;-70
2023/09/01 05:47:13;;;;;;;4.05;1.33;;;;;;;13.66;46.21;101223.00;4996836;28;20041;-74
2023/09/01 05:49:39;;;;;;;4.38;0.60;;;;;;;13.18;46.48;101233.03;4989337;28;20030;-73
2023/09/01 05:52:04;;;;;;;5.72;1.30;;;;;;;13.15;47.63;101229.72;4983828;28;20034;-75
2023/09/01 05:54:30;;;;;;;2.92;1.90;;;;;;;13.27;46.89;101230.00;4983346;28;20029;-73
2023/09/01 05:56:55;;;;;;;6.05;0.80;;;;;;;12.72;48.25;101229.00;4983766;28;20105;-74
2023/09/01 05:59:21;;;;;;;2.00;1.30;;;;;;;12.44;48.55;101230.97;4948528;28;20072;-72
2023/09/01 06:01:47;;;;;;;2.45;1.20;;;;;;;12.07;49.30;101231.66;4986535;28;20609;-73
2023/09/01 06:04:13;;;;;;;3.85;1.33;;;;;;;13.03;49.83;101234.59;4945457;28;20921;-74
2023/09/01 06:06:39;;;;;;;4.05;1.33;;;;;;;14.03;47.62;101232.59;4981841;28;20110;-71
2023/09/01 06:09:05;;;;;;;3.58;0.70;;;;;;;14.32;44.76;101225.88;4975132;28;20050;-69
2023/09/01 06:11:35;;;;;;;4.18;1.40;;;;;;;15.18;42.91;101231.97;4984995;28;20057;-74
2023/09/01 06:14:01;;;;;;;2.50;0.93;;;;;;;16.50;41.05;101236.03;4974848;28;20096;-73
2023/09/01 06:16:27;;;;;;;2.58;1.02;;;;;;;18.00;39.04;101236.41;4984997;28;20022;-73
2023/09/01 06:18:53;;;;;;;3.70;1.10;;;;;;;19.00;37.21;101240.28;4968081;28;20042;-73
2023/09/01 06:21:19;;;;;;;1.98;0.82;;;;;;;19.63;36.46;101241.09;4966596;28;20188;-74
2023/09/01 06:23:46;;;;;;;1.58;0.93;;;;;;;19.54;35.68;101245.25;4948071;28;20085;-73
2023/09/01 06:26:17;;;;;;;2.45;1.00;;;;;;;19.49;35.66;101234.13;4968370;28;20030;-73
2023/09/01 06:28:44;;;;;;;2.05;0.68;;;;;;;20.05;34.27;101242.41;4964748;28;20389;-71
2023/09/01 06:31:10;;;;;;;2.53;0.65;;;;;;;20.13;33.07;101247.16;4983407;28;20065;-71
2023/09/01 06:33:42;;;;;;;3.30;0.90;;;;;;;20.82;32.26;101247.22;4983721;28;20149;-73
2023/09/01 06:36:07;;;;;;;;;;;;;;;21.13;32.01;101244.81;4984072;28;20048;-72
2023/09/01 06:38:33;;;;;;;4.15;0.85;;;;;;;19.52;34.78;101249.81;4980550;28;19921;-72
2023/09/01 06:40:58;;;;;;;1.42;0.68;;;;;;;18.65;36.00;101255.00;4989153;28;20489;-73
2023/09/01 06:43:24;;;;;;;2.17;0.60;;;;;;;18.11;36.40;101259.50;4951951;28;20559;-73
2023/09/01 06:45:49;;;;;;;2.15;0.93;;;;;;;18.67;35.63;101260.16;4987329;28;20469;-72
2023/09/01 06:48:15;;;;;;;1.80;0.63;;;;;;;19.73;36.31;101262.53;4958213;28;20613;-72
2023/09/01 06:50:40;;;;;;;1.30;0.90;;;;;;;21.25;34.37;101265.13;4980704;28;20464;-72
2023/09/01 06:53:06;;;;;;;1.95;0.80;;;;;;;21.92;33.31;101263.31;4961350;28;20050;-75
2023/09/01 06:55:31;;;;;;;1.73;0.75;;;;;;;22.75;31.64;101262.56;4985043;28;20041;-73
2023/09/01 06:57:57;;;;;;;2.45;0.98;;;;;;;23.41;30.28;101262.16;4985689;28;20056;-71
2023/09/01 07:00:22;;;;;;;2.58;0.60;;;;;;;23.70;29.04;101258.72;4979140;28;20632;-71
2023/09/01 07:02:48;;;;;;;1.60;0.60;;;;;;;22.54;29.11;101265.22;4963572;28;20140;-69
2023/09/01 07:05:17;;;;;;;4.28;0.68;;;;;;;23.02;29.00;101273.63;4981159;28;22296;-70
2023/09/01 07:07:42;;;;;;;3.40;0.75;;;;;;;21.94;30.53;101275.53;4958447;28;20049;-70
2023/09/01 07:10:08;;;;;;;1.75;0.55;;;;;;;22.92;31.50;101276.28;4985661;28;20045;-70
2023/09/01 07:12:34;;;;;;;2.72;0.70;;;;;;;24.80;29.77;101268.22;4952100;28;20129;-70
2023/09/01 07:15:00;;;;;;;2.38;0.65;;;;;;;25.88;26.82;101267.50;4965726;28;20238;-70
2023/09/01 07:17:26;;;;;;;2.92;0.70;;;;;;;24.83;26.65;101262.56;4944022;28;20143;-70
2023/09/01 07:19:52;;;;;;;1.08;0.30;;;;;;;25.35;27.14;101265.63;4976585;28;20501;-71
2023/09/01 07:22:17;;;;;;;1.92;0.50;;;;;;;23.52;28.57;101271.00;4983929;28;20626;-70
2023/09/01 07:24:43;;;;;;;4.05;0.68;;;;;;;21.54;30.28;101275.28;4986200;28;20045;-70
2023/09/01 07:27:08;;;;;;;1.90;0.55;;;;;;;22.43;32.56;101262.63;4956582;28;20057;-70
2023/09/01 07:29:34;;;;;;;2.33;0.80;;;;;;;22.79;30.11;101258.66;4973014;28;21464;-70
2023/09/01 07:32:00;;;;;;;3.08;0.65;;;;;;;22.68;31.03;101266.75;4971499;28;20084;-71
2023/09/01 07:34:26;;;;;;;1.40;0.60;;;;;;;22.14;30.78;101268.59;4961102;28;20417;-70
2023/09/01 07:36:52;;;;;;;2.00;0.55;;;;;;;21.69;32.35;101266.06;4980290;28;20057;-71
2023/09/01 07:39:17;;;;;;;1.23;0.50;;;;;;;23.19;30.00;101260.53;4944776;28;20042;-70
2023/09/01 07:41:43;;;;;;;2.95;0.60;;;;;;;25.24;26.75;101263.97;4987173;28;20045;-69
2023/09/01 07:44:08;;;;;;;2.90;0.60;;;;;;;25.38;26.36;101265.31;4996991;28;20042;-70
2023/09/01 07:46:34;;;;;;;3.33;0.30;;;;;;;25.92;26.46;101261.88;4982794;28;20030;-70
2023/09/01 07:49:00;;;;;;;0.63;0.20;;;;;;;26.93;24.72;101256.94;4974132;28;20053;-70
2023/09/01 07:51:26;;;;;;;1.35;0.30;;;;;;;27.30;23.98;101261.13;4981459;28;20037;-70
2023/09/01 07:53:54;;;;;;;1.23;0.30;;;;;;;27.85;23.56;101259.75;4971404;28;20543;-70
2023/09/01 07:56:20;;;;;;;2.50;0.40;;;;;;;28.56;22.22;101263.59;4980686;28;20108;-70
2023/09/01 07:58:45;;;;;;;1.15;0.25;;;;;;;29.49;21.44;101271.03;4979393;28;20093;-70
2023/09/01 08:01:11;;;;;;;1.00;0.38;;;;;;;28.44;23.47;101267.69;4979617;28;20042;-70
2023/09/01 08:03:36;;;;;;;1.45;0.40;;;;;;;29.12;22.42;101259.09;4956323;28;20637;-70
2023/09/01 08:06:04;;;;;;;1.30;0.20;;;;;;;27.71;22.93;101263.94;4985702;28;20060;-70
2023/09/01 08:08:30;;;;;;;2.65;0.30;;;;;;;26.64;24.44;101263.47;4960502;28;20061;-70
2023/09/01 08:10:55;;;;;;;3.80;0.25;;;;;;;26.08;26.66;101264.72;4985665;28;20081;-70
2023/09/01 08:13:22;;;;;;;1.10;0.22;;;;;;;25.74;26.15;101262.72;4956178;28;20420;-70
2023/09/01 08:15:47;;;;;;;2.45;0.20;;;;;;;25.61;26.94;101270.25;4988236;28;20222;-71
2023/09/01 08:18:13;;;;;;;2.95;0.30;;;;;;;25.29;26.34;101270.72;4980829;28;20118;-70
2023/09/01 08:20:40;;;;;;;1.20;0.20;;;;;;;24.59;26.61;101282.63;4979364;28;20062;-72
2023/09/01 08:23:06;;;;;;;1.65;0.20;;;;;;;23.70;29.32;101282.72;4962066;28;20056;-71
2023/09/01 08:25:32;;;;;;;1.33;0.20;;;;;;;24.91;26.49;101276.06;4987710;28;20030;-70
2023/09/01 08:27:58;;;;;;;0.95;0.20;;;;;;;25.12;26.52;101278.53;4963614;28;20046;-71
2023/09/01 08:30:24;;;;;;;1.88;0.17;;;;;;;26.49;25.12;101278.41;4983896;28;20030;-70
2023/09/01 08:32:50;;;;;;;2.38;0.10;;;;;;;25.75;25.61;101280.44;4962535;28;20052;-70
2023/09/01 08:35:16;;;;;;;2.40;0.40;;;;;;;27.05;24.02;101276.25;4988872;28;20855;-71
2023/09/01 08:37:42;;;;;;;1.52;0.20;;;;;;;26.99;23.56;101269.69;4982533;28;20042;-71
2023/09/01 08:40:10;;;;;;;1.63;0.30;;;;;;;27.66;23.30;101279.72;4981244;28;20416;-71
2023/09/01 08:42:38;;;;;;;0.90;0.20;;;;;;;27.90;23.53;101279.75;4976265;28;20069;-71
2023/09/01 08:45:04;;;;;;;1.73;0.10;;;;;;;27.19;23.44;101280.22;4976208;28;20085;-70
2023/09/01 08:47:36;;;;;;;1.42;0.17;;;;;;;26.53;24.69;101284.31;4952409;28;20115;-71
2023/09/01 08:50:02;;;;;;;0.98;0.17;;;;;;;25.50;26.54;101287.34;4981836;28;20034;-70
2023/09/01 08:52:30;;;;;;;3.67;0.20;;;;;;;24.93;26.38;101281.25;4971928;28;20042;-70
2023/09/01 08:54:56;;;;;;;1.55;0.10;;;;;;;24.41;26.80;101279.84;4972522;28;20034;-70
2023/09/01 08:57:21;;;;;;;0.70;0.10;;;;;;;24.07;27.95;101292.75;4969818;28;20042;-70
2023/09/01 08:59:47;;;;;;;1.73;0.20;;;;;;;24.44;28.77;101289.41;4959284;28;20129;-72
2023/09/01 09:02:12;;;;;;;2.58;0.22;;;;;;;24.23;27.51;101290.34;4948580;28;20114;-71
2023/09/01 09:04:38;;;;;;;2.78;0.10;;;;;;;23.30;29.19;101282.75;4972909;28;20034;-71
2023/09/01 09:07:19;;;;;;;6.05;0.55;;;;;;;23.13;29.65;101281.53;4952220;28;20064;-71
2023/09/01 09:09:56;;;;;;;0.50;0.10;;;;;;;22.84;29.68;101276.91;4986780;28;20661;-71
2023/09/01 09:12:22;;;;;;;1.35;0.20;;;;;;;23.48;30.75;101286.47;4949774;28;20563;-72
2023/09/01 09:14:52;;;;;;;1.55;0.40;;;;;;;23.89;28.16;101281.09;4985644;28;20029;-70
2023/09/01 09:17:22;;;;;;;2.40;0.10;;;;;;;23.76;29.19;101282.16;4948981;28;20085;-70
2023/09/01 09:19:59;;;;;;;0.77;0.20;;;;;;;23.41;29.52;101288.84;4952548;28;20080;-70
2023/09/01 09:22:25;;;;;;;5.68;0.30;;;;;;;22.73;29.40;101287.66;4949199;28;20049;-71
2023/09/01 09:24:50;;;;;;;1.17;0.20;;;;;;;22.68;29.86;101289.84;4966316;28;20034;-72
2023/09/01 09:27:17;;;;;;;1.05;0.10;;;;;;;22.82;30.54;101286.03;4936019;28;20033;-69
2023/09/01 09:29:45;;;;;;;0.55;0.10;;;;;;;22.36;29.27;101288.06;4985693;28;20048;-68
2023/09/01 09:32:26;;;;;;;0.22;0.10;;;;;;;22.90;29.22;101287.06;4949159;28;20038;-70
2023/09/01 09:35:09;;;;;;;0.45;0.10;;;;;;;22.41;29.02;101288.53;4962634;28;20034;-69
2023/09/01 09:37:40;;;;;;;1.98;0.20;;;;;;;21.80;31.07;101296.25;4949730;28;20042;-69
2023/09/01 09:40:24;;;;;;;1.38;0.10;;;;;;;21.62;30.70;101303.91;4980039;28;20040;-69
2023/09/01 09:42:49;;;;;;;2.33;0.20;;;;;;;21.86;29.75;101295.75;4979099;28;20488;-69
2023/09/01 09:45:32;;;;;;;1.27;0.20;;;;;;;22.57;29.55;101302.25;4984571;28;20037;-71
2023/09/01 09:48:04;;;;;;;1.63;0.35;;;;;;;22.56;30.80;101307.69;4972394;28;20048;-70
2023/09/01 09:50:31;;;;;;;0.55;0.20;;;;;;;23.22;29.17;101302.06;4971897;28;20077;-69
2023/09/01 09:53:04;;;;;;;2.10;0.15;;;;;;;22.96;29.04;101307.84;4957444;28;20542;-72
2023/09/01 09:55:48;;;;;;;0.50;0.10;;;;;;;22.56;28.20;101305.91;4977056;28;20104;-70
2023/09/01 09:58:16;;;;;;;3.53;0.40;;;;;;;21.79;30.21;101310.53;4974677;28;20363;-71
2023/09/01 10:00:51;;;;;;;1.00;0.20;;;;;;;21.45;30.57;101310.56;4964114;28;20078;-70
2023/09/01 10:03:18;;;;;;;3.58;0.20;;;;;;;21.90;30.21;101305.19;4972258;28;20054;-70
2023/09/01 10:05:45;;;;;;;3.08;0.15;;;;;;;21.32;30.59;101318.66;4975672;28;20452;-70
2023/09/01 10:08:11;;;;;;;1.83;0.10;;;;;;;21.06;31.54;101318.03;4957891;28;20104;-71
2023/09/01 10:10:37;;;;;;;1.13;0.20;;;;;;;21.23;30.86;101312.25;4975659;28;20034;-71
2023/09/01 10:13:06;;;;;;;0.82;0.20;;;;;;;21.34;29.55;101322.03;4953587;28;20544;-71
2023/09/01 10:15:33;;;;;;;2.90;0.20;;;;;;;20.93;31.48;101321.66;4970156;28;20030;-70
2023/09/01 10:18:07;;;;;;;1.48;0.10;;;;;;;21.75;29.63;101320.56;4969072;28;20692;-69
2023/09/01 10:20:39;;;;;;;0.65;0.13;;;;;;;22.26;30.21;101319.13;4978447;28;20123;-72
2023/09/01 10:23:05;;;;;;;3.75;0.25;;;;;;;22.09;30.31;101325.81;4976234;28;20061;-70
2023/09/01 10:25:31;;;;;;;1.42;0.68;;;;;;;21.86;29.65;101333.00;4973176;28;20031;-71
2023/09/01 10:28:00;;;;;;;1.90;0.20;;;;;;;21.71;31.30;101341.25;4958532;28;20323;-70
2023/09/01 10:30:27;;;;;;;0.88;0.10;;;;;;;22.05;28.80;101327.88;4974693;28;20069;-71
2023/09/01 10:33:06;;;;;;;0.43;0.10;;;;;;;21.59;29.37;101334.25;4970306;28;21896;-70
2023/09/01 10:35:36;;;;;;;1.75;0.10;;;;;;;21.41;29.71;101341.00;4961156;28;20042;-71
2023/09/01 10:38:17;;;;;;;1.40;0.40;;;;;;;21.39;30.76;101330.47;4941028;28;20057;-69
2023/09/01 10:40:51;;;;;;;0.43;0.10;;;;;;;22.25;30.18;101336.03;4985954;28;20108;-69
2023/09/01 10:43:35;;;;;;;1.27;0.22;;;;;;;22.49;28.41;101336.66;4966203;28;20041;-71
2023/09/01 10:46:12;;;;;;;1.40;0.10;;;;;;;22.58;27.70;101332.38;4985222;28;20030;-70
2023/09/01 10:48:57;;;;;;;1.00;0.20;;;;;;;22.94;27.82;101325.78;4975484;28;20054;-69
2023/09/01 10:51:27;;;;;;;0.50;0.10;;;;;;;22.58;28.86;101330.59;4974998;28;20093;-69
2023/09/01 10:53:53;;;;;;;0.50;0.20;;;;;;;21.98;30.57;101332.00;4963660;28;20049;-69
2023/09/01 10:56:20;;;;;;;2.25;0.30;;;;;;;21.79;30.16;101330.00;4978593;28;20045;-70
2023/09/01 10:58:53;;;;;;;1.10;0.25;;;;;;;21.92;31.38;101332.50;4983361;28;20034;-69
2023/09/01 11:01:36;;;;;;;1.80;0.20;;;;;;;22.96;29.41;101328.31;4977075;28;20097;-70
2023/09/01 11:04:14;;;;;;;0.55;0.10;;;;;;;23.15;28.85;101327.56;4970593;28;20073;-70
2023/09/01 11:06:58;;;;;;;0.30;0.10;;;;;;;23.60;28.04;101333.38;4979895;28;20096;-69
2023/09/01 11:09:42;;;;;;;2.78;0.20;;;;;;;23.07;28.66;101335.38;4981485;28;20054;-71
2023/09/01 11:12:09;;;;;;;2.97;0.13;;;;;;;22.58;28.72;101337.72;4979646;28;20042;-70
2023/09/01 11:14:37;;;;;;;1.27;0.25;;;;;;;22.36;29.17;101344.00;4976548;28;20042;-70
2023/09/01 11:17:04;;;;;;;1.45;0.20;;;;;;;22.35;27.91;101342.31;4979759;28;20092;-69
2023/09/01 11:19:33;;;;;;;2.03;0.22;;;;;;;21.68;29.30;101333.50;4976109;28;20650;-70
2023/09/01 11:21:59;;;;;;;3.67;0.17;;;;;;;21.88;29.64;101336.38;4984175;28;20120;-69
2023/09/01 11:24:25;;;;;;;2.55;0.20;;;;;;;22.49;28.33;101342.00;4979248;28;20044;-70
2023/09/01 11:26:54;;;;;;;1.00;0.20;;;;;;;22.86;27.24;101344.25;4983842;28;20030;-70
2023/09/01 11:29:20;;;;;;;0.47;0.10;;;;;;;21.63;27.79;101351.66;4982989;28;20363;-69
2023/09/01 11:31:45;;;;;;;1.40;0.30;;;;;;;21.96;29.00;101347.25;4979150;28;20044;-70